createdAt,value
2023-05-09T00:01:52.332Z,8.57
2023-05-09T00:04:23.017Z,8.50
2023-05-09T00:06:53.680Z,8.42
2023-05-09T00:09:24.723Z,8.34
2023-05-09T00:11:53.818Z,8.32
2023-05-09T00:14:24.407Z,8.33
2023-05-09T00:16:55.264Z,8.32
2023-05-09T00:19:24.503Z,8.31
2023-05-09T00:21:55.563Z,8.27
2023-05-09T00:24:24.573Z,8.25
2023-05-09T00:26:55.209Z,8.21
2023-05-09T00:29:25.866Z,8.19
2023-05-09T00:31:56.762Z,8.11
2023-05-09T00:34:27.411Z,8.09
2023-05-09T00:36:58.076Z,8.08
2023-05-09T00:39:28.793Z,8.04
2023-05-09T00:41:59.434Z,7.99
2023-05-09T00:44:30.217Z,7.96
2023-05-09T00:47:00.872Z,7.94
2023-05-09T00:49:31.566Z,7.91
2023-05-09T00:52:02.771Z,7.86
2023-05-09T00:54:33.429Z,7.80
2023-05-09T00:57:04.265Z,7.78
2023-05-09T00:59:35.301Z,7.76
2023-05-09T01:02:04.382Z,7.71
2023-05-09T01:04:35.356Z,7.67
2023-05-09T01:07:11.555Z,7.63
2023-05-09T01:09:50.653Z,7.61
2023-05-09T01:12:31.418Z,7.64
2023-05-09T01:15:08.360Z,7.62
2023-05-09T01:17:45.912Z,7.62
2023-05-09T01:20:23.245Z,7.57
2023-05-09T01:23:11.887Z,7.56
2023-05-09T01:26:05.756Z,7.53
2023-05-09T01:29:02.129Z,7.53
2023-05-09T01:31:34.835Z,7.53
2023-05-09T01:34:08.088Z,7.49
2023-05-09T01:36:40.393Z,7.45
2023-05-09T01:39:13.736Z,7.45
2023-05-09T01:41:46.001Z,7.48
2023-05-09T01:44:17.851Z,7.50
2023-05-09T01:46:50.437Z,7.51
2023-05-09T01:49:22.047Z,7.50
2023-05-09T01:51:54.730Z,7.45
2023-05-09T01:54:26.582Z,7.40
2023-05-09T01:56:57.982Z,7.37
2023-05-09T01:59:30.126Z,7.32
2023-05-09T02:02:01.579Z,7.26
2023-05-09T02:04:32.967Z,7.15
2023-05-09T02:07:05.250Z,7.02
2023-05-09T02:09:36.347Z,6.93
2023-05-09T02:12:05.896Z,6.86
2023-05-09T02:14:36.512Z,6.78
2023-05-09T02:17:07.210Z,6.75
2023-05-09T02:19:37.906Z,6.71
2023-05-09T02:22:09.504Z,6.72
2023-05-09T02:24:40.447Z,6.72
2023-05-09T02:27:12.948Z,6.66
2023-05-09T02:29:47.479Z,6.60
2023-05-09T02:32:22.067Z,6.54
2023-05-09T02:34:54.540Z,6.48
2023-05-09T02:37:25.476Z,6.45
2023-05-09T02:39:56.699Z,6.39
2023-05-09T02:42:27.836Z,6.33
2023-05-09T02:44:57.029Z,6.31
2023-05-09T02:47:27.710Z,6.29
2023-05-09T02:49:58.367Z,6.27
2023-05-09T02:52:28.972Z,6.27
2023-05-09T02:55:00.046Z,6.28
2023-05-09T02:57:29.087Z,6.27
2023-05-09T02:59:59.678Z,6.25
2023-05-09T03:02:30.438Z,6.25
2023-05-09T03:05:01.160Z,6.25
2023-05-09T03:07:32.072Z,6.29
2023-05-09T03:10:02.771Z,6.33
2023-05-09T03:12:33.472Z,6.37
2023-05-09T03:15:04.670Z,6.38
2023-05-09T03:17:35.422Z,6.39
2023-05-09T03:20:08.615Z,6.41
2023-05-09T03:22:39.373Z,6.46
2023-05-09T03:25:10.388Z,6.46
2023-05-09T03:27:41.570Z,6.49
2023-05-09T03:30:14.442Z,6.56
2023-05-09T03:32:45.104Z,6.65
2023-05-09T03:35:16.022Z,6.73
2023-05-09T03:37:46.936Z,6.80
2023-05-09T03:40:17.832Z,6.89
2023-05-09T03:42:48.458Z,6.94
2023-05-09T03:45:19.117Z,7.00
2023-05-09T03:47:49.725Z,7.06
2023-05-09T03:50:20.454Z,7.11
2023-05-09T03:52:51.105Z,7.18
2023-05-09T03:55:22.587Z,7.21
2023-05-09T03:57:53.631Z,7.25
2023-05-09T04:00:22.930Z,7.26
2023-05-09T04:02:53.810Z,7.26
2023-05-09T04:05:24.590Z,7.29
2023-05-09T04:07:55.362Z,7.38
2023-05-09T04:10:26.033Z,7.54
2023-05-09T04:12:56.806Z,8.51
2023-05-09T04:15:26.046Z,10.64
2023-05-09T04:17:56.681Z,12.70
2023-05-09T04:20:27.646Z,14.58
2023-05-09T04:22:58.294Z,16.38
2023-05-09T04:25:27.432Z,17.94
2023-05-09T04:27:58.067Z,19.25
2023-05-09T04:30:28.747Z,20.62
2023-05-09T04:32:59.403Z,21.86
2023-05-09T04:35:30.061Z,23.09
2023-05-09T04:38:00.651Z,24.07
2023-05-09T04:40:31.313Z,24.86
2023-05-09T04:43:02.000Z,25.51
2023-05-09T04:45:32.686Z,26.15
2023-05-09T04:48:03.538Z,26.96
2023-05-09T04:50:34.284Z,27.47
2023-05-09T04:53:04.986Z,28.05
2023-05-09T04:55:41.740Z,28.35
2023-05-09T04:58:12.435Z,28.38
2023-05-09T05:00:43.190Z,27.11
2023-05-09T05:03:13.839Z,25.78
2023-05-09T05:05:44.647Z,25.86
2023-05-09T05:08:15.420Z,26.94
2023-05-09T05:10:46.100Z,27.75
2023-05-09T05:13:17.099Z,28.40
2023-05-09T05:15:48.075Z,28.55
2023-05-09T05:18:18.888Z,28.14
2023-05-09T05:20:49.568Z,27.18
2023-05-09T05:23:20.216Z,26.12
2023-05-09T05:25:51.681Z,24.99
2023-05-09T05:28:22.300Z,23.85
2023-05-09T05:30:52.926Z,22.92
2023-05-09T05:33:23.571Z,22.07
2023-05-09T05:35:54.224Z,21.28
2023-05-09T05:38:24.867Z,20.41
2023-05-09T05:40:55.524Z,19.58
2023-05-09T05:43:26.146Z,18.86
2023-05-09T05:45:55.974Z,18.17
2023-05-09T05:48:26.686Z,17.51
2023-05-09T05:50:55.778Z,16.85
2023-05-09T05:53:26.389Z,16.23
2023-05-09T05:55:55.613Z,15.73
2023-05-09T05:58:26.266Z,15.32
2023-05-09T06:00:56.894Z,15.05
2023-05-09T06:03:27.635Z,14.84
2023-05-09T06:05:56.826Z,14.58
2023-05-09T06:08:27.510Z,14.43
2023-05-09T06:10:58.141Z,14.24
2023-05-09T06:13:28.928Z,14.08
2023-05-09T06:16:07.699Z,13.92
2023-05-09T06:18:46.147Z,13.76
2023-05-09T06:21:17.548Z,13.66
2023-05-09T06:24:05.970Z,13.58
2023-05-09T06:26:38.829Z,13.49
2023-05-09T06:29:09.488Z,13.42
2023-05-09T06:31:40.143Z,13.43
2023-05-09T06:34:10.835Z,13.44
2023-05-09T06:36:41.725Z,13.46
2023-05-09T06:39:10.809Z,13.50
2023-05-09T06:41:41.379Z,13.55
2023-05-09T06:44:12.063Z,13.61
2023-05-09T06:46:41.357Z,13.67
2023-05-09T06:49:12.195Z,13.67
2023-05-09T06:51:42.820Z,13.66
2023-05-09T06:54:13.462Z,13.71
2023-05-09T06:56:44.106Z,13.76
2023-05-09T06:59:14.785Z,13.77
2023-05-09T07:01:45.490Z,13.78
2023-05-09T07:04:16.240Z,13.82
2023-05-09T07:06:46.854Z,13.87
2023-05-09T07:09:17.525Z,13.94
2023-05-09T07:11:48.158Z,14.02
2023-05-09T07:14:18.944Z,14.03
2023-05-09T07:16:49.753Z,14.01
2023-05-09T07:19:18.900Z,14.01
2023-05-09T07:22:00.272Z,14.05
2023-05-09T07:24:35.180Z,14.14
2023-05-09T07:31:12.975Z,14.25
2023-05-09T07:33:45.702Z,14.31
2023-05-09T07:36:16.396Z,14.40
2023-05-09T07:38:47.718Z,14.53
2023-05-09T07:41:18.958Z,14.65
2023-05-09T07:44:46.627Z,14.75
2023-05-09T07:47:27.067Z,14.89
2023-05-09T07:49:58.422Z,15.02
2023-05-09T07:52:36.801Z,15.07
2023-05-09T07:55:10.885Z,15.12
2023-05-09T07:57:42.607Z,15.16
2023-05-09T08:00:17.027Z,15.21
2023-05-09T08:02:47.674Z,15.27
2023-05-09T08:05:18.927Z,15.33
2023-05-09T08:07:49.635Z,15.41
2023-05-09T08:10:20.280Z,15.43
2023-05-09T08:12:51.071Z,15.47
2023-05-09T08:15:21.766Z,15.44
2023-05-09T08:17:52.494Z,15.48
2023-05-09T08:20:21.582Z,15.49
2023-05-09T08:22:52.204Z,15.53
2023-05-09T08:25:22.821Z,15.61
2023-05-09T08:27:53.569Z,15.67
2023-05-09T08:30:24.340Z,15.70
2023-05-09T08:32:55.132Z,15.78
2023-05-09T08:35:24.210Z,15.94
2023-05-09T08:37:55.045Z,16.08
2023-05-09T08:40:24.132Z,16.17
2023-05-09T08:42:55.115Z,16.18
2023-05-09T08:45:29.305Z,16.10
2023-05-09T08:48:02.563Z,16.05
2023-05-09T08:50:33.652Z,16.06
2023-05-09T08:53:04.335Z,16.10
2023-05-09T08:55:34.928Z,16.17
2023-05-09T08:58:06.631Z,16.26
2023-05-09T09:00:39.200Z,16.34
2023-05-09T09:03:10.069Z,16.43
2023-05-09T09:05:44.845Z,16.44
2023-05-09T09:08:16.168Z,16.53
2023-05-09T09:10:47.796Z,16.57
2023-05-09T09:13:20.481Z,16.49
2023-05-09T09:15:53.022Z,16.48
2023-05-09T09:18:29.358Z,16.52
2023-05-09T09:21:07.067Z,16.57
2023-05-09T09:23:39.842Z,16.57
2023-05-09T09:26:10.545Z,16.53
2023-05-09T09:28:41.362Z,16.56
2023-05-09T09:31:23.526Z,16.61
2023-05-09T09:33:58.920Z,16.65
2023-05-09T09:36:30.517Z,16.79
2023-05-09T09:39:58.778Z,16.82
2023-05-09T09:46:05.173Z,16.81
2023-05-09T09:49:29.501Z,16.95
2023-05-09T09:52:01.077Z,16.88
2023-05-09T09:54:33.435Z,16.86
2023-05-09T09:57:04.274Z,16.89
2023-05-09T09:59:33.380Z,16.92
2023-05-09T10:02:07.632Z,16.91
2023-05-09T10:04:39.821Z,16.98
2023-05-09T10:07:14.873Z,17.04
2023-05-09T10:09:46.053Z,17.11
2023-05-09T10:12:17.360Z,17.17
2023-05-09T10:14:48.937Z,17.25
2023-05-09T10:17:21.702Z,17.35
2023-05-09T10:20:14.376Z,17.41
2023-05-09T10:23:03.128Z,17.45
2023-05-09T10:25:40.522Z,17.46
2023-05-09T10:28:14.709Z,17.45
2023-05-09T10:30:56.701Z,17.42
2023-05-09T10:33:31.691Z,17.45
2023-05-09T10:36:03.006Z,17.47
2023-05-09T10:38:33.915Z,17.45
2023-05-09T10:41:03.114Z,17.55
2023-05-09T10:43:36.600Z,17.61
2023-05-09T10:46:08.389Z,17.74
2023-05-09T10:48:40.084Z,17.82
2023-05-09T10:51:11.937Z,17.86
2023-05-09T10:53:47.158Z,17.73
2023-05-09T10:56:34.730Z,17.78
2023-05-09T10:59:06.101Z,17.87
2023-05-09T11:01:35.891Z,17.87
2023-05-09T11:04:13.082Z,17.83
2023-05-09T11:06:47.026Z,17.81
2023-05-09T11:09:32.342Z,17.72
2023-05-09T11:12:15.280Z,17.73
2023-05-09T11:14:47.134Z,17.77
2023-05-09T11:17:29.883Z,17.83
2023-05-09T11:20:03.419Z,17.99
2023-05-09T11:22:41.273Z,18.09
2023-05-09T11:25:14.233Z,18.20
2023-05-09T11:27:46.630Z,18.24
2023-05-09T11:30:20.003Z,18.31
2023-05-09T11:32:53.278Z,18.35
2023-05-09T11:35:25.513Z,18.34
2023-05-09T11:38:02.991Z,18.30
2023-05-09T11:40:37.388Z,18.33
2023-05-09T11:43:08.690Z,18.39
2023-05-09T11:45:40.694Z,18.35
2023-05-09T11:48:11.519Z,18.19
2023-05-09T11:50:40.733Z,18.17
2023-05-09T11:53:13.360Z,18.23
2023-05-09T11:55:44.078Z,18.25
2023-05-09T11:58:13.431Z,18.23
2023-05-09T12:00:48.559Z,18.23
2023-05-09T12:03:19.465Z,18.36
2023-05-09T12:05:50.960Z,18.48
2023-05-09T12:08:24.019Z,18.54
2023-05-09T12:10:54.680Z,18.57
2023-05-09T12:13:25.630Z,18.63
2023-05-09T12:16:03.043Z,18.52
2023-05-09T12:18:34.668Z,18.47
2023-05-09T12:21:07.237Z,18.53
2023-05-09T12:24:09.992Z,18.53
2023-05-09T12:26:53.272Z,18.49
2023-05-09T12:29:24.304Z,18.43
2023-05-09T12:31:55.348Z,18.41
2023-05-09T12:34:26.366Z,18.48
2023-05-09T12:36:57.696Z,18.48
2023-05-09T12:39:28.384Z,18.33
2023-05-09T12:42:15.514Z,18.34
2023-05-09T12:44:51.182Z,18.49
2023-05-09T12:47:22.195Z,18.67
2023-05-09T12:49:53.015Z,18.79
2023-05-09T12:52:23.819Z,18.88
2023-05-09T12:54:55.271Z,18.86
2023-05-09T12:57:26.505Z,18.90
2023-05-09T13:00:01.825Z,18.96
2023-05-09T13:02:37.312Z,18.99
2023-05-09T13:05:10.744Z,19.03
2023-05-09T13:07:42.719Z,19.05
2023-05-09T13:10:14.826Z,19.07
2023-05-09T13:12:45.661Z,19.06
2023-05-09T13:15:17.000Z,19.02
2023-05-09T13:17:48.133Z,19.08
2023-05-09T13:20:19.612Z,19.16
2023-05-09T13:22:50.341Z,19.27
2023-05-09T13:25:21.334Z,19.35
2023-05-09T13:27:52.080Z,19.37
2023-05-09T13:30:21.242Z,19.37
2023-05-09T13:32:51.836Z,19.41
2023-05-09T13:35:21.132Z,19.47
2023-05-09T13:37:51.754Z,19.50
2023-05-09T13:40:21.022Z,19.46
2023-05-09T13:42:51.772Z,19.34
2023-05-09T13:45:22.639Z,19.31
2023-05-09T13:47:53.455Z,19.35
2023-05-09T13:50:22.673Z,19.37
2023-05-09T13:52:53.281Z,19.38
2023-05-09T13:55:23.938Z,19.39
2023-05-09T13:57:53.241Z,19.33
2023-05-09T14:00:26.152Z,19.32
2023-05-09T14:02:56.877Z,19.38
2023-05-09T14:05:26.072Z,19.41
2023-05-09T14:07:56.964Z,19.23
2023-05-09T14:10:27.794Z,19.21
2023-05-09T14:12:58.501Z,19.20
2023-05-09T14:15:27.658Z,19.10
2023-05-09T14:17:58.383Z,19.07
2023-05-09T14:20:27.620Z,19.08
2023-05-09T14:22:58.225Z,19.06
2023-05-09T14:25:27.265Z,19.05
2023-05-09T14:27:57.904Z,19.07
2023-05-09T14:30:28.769Z,19.12
2023-05-09T14:32:59.955Z,19.22
2023-05-09T14:35:30.696Z,19.29
2023-05-09T14:37:59.782Z,19.36
2023-05-09T14:40:30.643Z,19.35
2023-05-09T14:43:01.867Z,19.28
2023-05-09T14:45:33.370Z,19.25
2023-05-09T14:48:06.631Z,19.16
2023-05-09T14:50:37.394Z,19.14
2023-05-09T14:53:06.516Z,19.16
2023-05-09T14:55:40.992Z,19.07
2023-05-09T14:58:32.248Z,19.02
2023-05-09T15:01:01.520Z,18.98
2023-05-09T15:03:32.242Z,18.94
2023-05-09T15:06:01.401Z,18.95
2023-05-09T15:08:32.160Z,18.89
2023-05-09T15:11:01.265Z,18.86
2023-05-09T15:13:32.117Z,18.86
2023-05-09T15:16:02.928Z,18.85
2023-05-09T15:18:33.506Z,18.88
2023-05-09T15:21:05.825Z,18.98
2023-05-09T15:23:36.677Z,19.03
2023-05-09T15:26:07.723Z,19.08
2023-05-09T15:28:38.400Z,19.12
2023-05-09T15:31:07.524Z,19.09
2023-05-09T15:33:38.275Z,19.06
2023-05-09T15:36:09.314Z,19.03
2023-05-09T15:38:39.927Z,19.05
2023-05-09T15:41:10.700Z,18.97
2023-05-09T15:43:39.782Z,18.86
2023-05-09T15:46:10.619Z,18.77
2023-05-09T15:48:41.303Z,18.73
2023-05-09T15:51:10.518Z,18.72
2023-05-09T15:53:41.344Z,18.68
2023-05-09T15:56:10.423Z,18.67
2023-05-09T15:58:41.351Z,18.71
2023-05-09T16:01:12.125Z,18.72
2023-05-09T16:03:41.310Z,18.73
2023-05-09T16:06:12.147Z,18.72
2023-05-09T16:08:41.174Z,18.67
2023-05-09T16:11:12.091Z,18.59
2023-05-09T16:13:42.768Z,18.53
2023-05-09T16:16:13.482Z,18.48
2023-05-09T16:18:42.555Z,18.48
2023-05-09T16:21:13.312Z,18.48
2023-05-09T16:23:44.060Z,18.45
2023-05-09T16:26:13.123Z,18.38
2023-05-09T16:28:43.740Z,18.34
2023-05-09T16:31:14.435Z,18.33
2023-05-09T16:33:43.624Z,18.30
2023-05-09T16:36:14.345Z,18.24
2023-05-09T16:38:45.018Z,18.20
2023-05-09T16:41:14.357Z,18.16
2023-05-09T16:43:45.082Z,18.10
2023-05-09T16:46:15.894Z,17.99
2023-05-09T16:48:45.004Z,17.94
2023-05-09T16:51:16.236Z,17.89
2023-05-09T16:53:47.197Z,17.87
2023-05-09T16:56:17.858Z,17.84
2023-05-09T16:58:48.503Z,17.78
2023-05-09T17:01:19.229Z,17.75
2023-05-09T17:03:48.313Z,17.68
2023-05-09T17:06:19.117Z,17.62
2023-05-09T17:08:49.807Z,17.58
2023-05-09T17:11:20.493Z,17.56
2023-05-09T17:13:51.136Z,17.55
2023-05-09T17:16:21.835Z,17.55
2023-05-09T17:18:52.431Z,17.55
2023-05-09T17:21:23.137Z,17.54
2023-05-09T17:23:53.731Z,17.56
2023-05-09T17:26:24.360Z,17.52
2023-05-09T17:28:53.488Z,17.53
2023-05-09T17:31:24.112Z,17.51
2023-05-09T17:33:54.835Z,17.52
2023-05-09T17:36:25.544Z,17.48
2023-05-09T17:38:56.224Z,17.46
2023-05-09T17:41:26.881Z,17.48
2023-05-09T17:43:57.697Z,17.46
2023-05-09T17:46:26.749Z,17.40
2023-05-09T17:48:57.752Z,17.33
2023-05-09T17:51:28.423Z,17.30
2023-05-09T17:53:59.125Z,17.27
2023-05-09T17:56:28.168Z,17.24
2023-05-09T17:59:00.231Z,17.13
2023-05-09T18:01:30.989Z,16.95
2023-05-09T18:04:01.894Z,16.72
2023-05-09T18:06:31.039Z,16.50
2023-05-09T18:09:01.723Z,16.30
2023-05-09T18:11:32.397Z,16.15
2023-05-09T18:14:03.394Z,16.01
2023-05-09T18:16:35.841Z,15.87
2023-05-09T18:19:06.636Z,15.75
2023-05-09T18:21:37.344Z,15.65
2023-05-09T18:24:10.017Z,15.55
2023-05-09T18:26:40.671Z,15.44
2023-05-09T18:29:11.529Z,15.33
2023-05-09T18:31:42.283Z,15.24
2023-05-09T18:34:13.001Z,15.14
2023-05-09T18:36:43.715Z,15.07
2023-05-09T18:39:14.512Z,14.98
2023-05-09T18:41:45.137Z,14.88
2023-05-09T18:44:15.807Z,14.81
2023-05-09T18:46:46.772Z,14.73
2023-05-09T18:49:15.919Z,14.65
2023-05-09T18:51:48.973Z,14.55
2023-05-09T18:54:37.080Z,14.47
2023-05-09T18:58:34.477Z,14.40
2023-05-09T19:01:58.045Z,14.29
2023-05-09T19:04:23.253Z,14.21
2023-05-09T19:07:33.905Z,14.11
2023-05-09T19:10:15.951Z,14.03
2023-05-09T19:12:52.273Z,13.98
2023-05-09T19:15:49.006Z,13.94
2023-05-09T19:18:58.503Z,13.90
2023-05-09T19:21:32.318Z,13.84
2023-05-09T19:25:11.066Z,13.79
2023-05-09T19:28:01.463Z,13.72
2023-05-09T19:30:50.993Z,13.64
2023-05-09T19:33:31.732Z,13.58
2023-05-09T19:36:03.104Z,13.52
2023-05-09T19:38:54.528Z,13.50
2023-05-09T19:41:30.643Z,13.47
2023-05-09T19:44:01.244Z,13.43
2023-05-09T19:46:32.164Z,13.39
2023-05-09T19:49:02.914Z,13.36
2023-05-09T19:51:33.576Z,13.32
2023-05-09T19:54:04.585Z,13.29
2023-05-09T19:56:33.656Z,13.27
2023-05-09T19:59:04.334Z,13.24
2023-05-09T20:04:05.890Z,13.19
2023-05-09T20:06:35.045Z,13.16
2023-05-09T20:09:05.655Z,13.15
2023-05-09T20:11:36.310Z,13.11
2023-05-09T20:14:07.058Z,13.08
2023-05-09T20:16:37.978Z,13.05
2023-05-09T20:19:08.768Z,13.01
2023-05-09T20:21:39.376Z,12.98
2023-05-09T20:24:10.506Z,12.95
2023-05-09T20:26:41.264Z,12.93
2023-05-09T20:29:13.199Z,12.90
2023-05-09T20:31:44.540Z,12.88
2023-05-09T20:34:15.265Z,12.86
2023-05-09T20:36:47.624Z,12.85
2023-05-09T20:39:18.230Z,12.81
2023-05-09T20:41:49.876Z,12.77
2023-05-09T20:44:22.193Z,12.72
2023-05-09T20:46:52.880Z,12.69
2023-05-09T20:49:23.650Z,12.65
2023-05-09T20:51:54.350Z,12.64
2023-05-09T20:54:25.141Z,12.60
2023-05-09T20:56:55.896Z,12.59
2023-05-09T20:59:26.580Z,12.57
2023-05-09T21:01:57.275Z,12.55
2023-05-09T21:04:28.244Z,12.54
2023-05-09T21:06:57.328Z,12.50
2023-05-09T21:09:27.931Z,12.46
2023-05-09T21:11:58.581Z,12.42
2023-05-09T21:14:29.220Z,12.40
2023-05-09T21:16:59.939Z,12.37
2023-05-09T21:19:30.634Z,12.34
2023-05-09T21:22:01.285Z,12.32
2023-05-09T21:24:31.956Z,12.28
2023-05-09T21:27:02.635Z,12.25
2023-05-09T21:29:33.257Z,12.23
2023-05-09T21:32:04.048Z,12.21
2023-05-09T21:34:34.658Z,12.18
2023-05-09T21:37:05.340Z,12.15
2023-05-09T21:39:35.932Z,12.13
2023-05-09T21:42:06.948Z,12.11
2023-05-09T21:44:37.718Z,12.09
2023-05-09T21:47:08.549Z,12.07
2023-05-09T21:49:37.746Z,12.05
2023-05-09T21:52:08.427Z,12.01
2023-05-09T21:54:39.142Z,12.01
2023-05-09T21:57:09.799Z,11.98
2023-05-09T21:59:40.486Z,11.96
2023-05-09T22:02:11.703Z,11.94
2023-05-09T22:04:42.390Z,11.93
2023-05-09T22:07:13.626Z,11.90
2023-05-09T22:09:44.265Z,11.87
2023-05-09T22:12:14.980Z,11.85
2023-05-09T22:14:55.753Z,11.83
2023-05-09T22:17:26.771Z,11.80
2023-05-09T22:19:57.402Z,11.78
2023-05-09T22:22:28.089Z,11.75
2023-05-09T22:24:58.756Z,11.73
2023-05-09T22:27:29.439Z,11.70
2023-05-09T22:30:00.058Z,11.68
2023-05-09T22:32:30.763Z,11.66
2023-05-09T22:35:01.448Z,11.64
2023-05-09T22:37:32.108Z,11.61
2023-05-09T22:40:03.047Z,11.59
2023-05-09T22:42:33.740Z,11.57
2023-05-09T22:45:05.405Z,11.55
2023-05-09T22:47:36.098Z,11.53
2023-05-09T22:50:09.371Z,11.52
2023-05-09T22:52:40.377Z,11.50
2023-05-09T22:55:11.464Z,11.49
2023-05-09T22:57:42.132Z,11.44
2023-05-09T23:00:15.027Z,11.43
2023-05-09T23:02:46.066Z,11.41
2023-05-09T23:05:16.799Z,11.38
2023-05-09T23:07:47.800Z,11.36
2023-05-09T23:10:17.132Z,11.34
2023-05-09T23:12:48.239Z,11.31
2023-05-09T23:15:19.168Z,11.30
2023-05-09T23:17:48.276Z,11.26
2023-05-09T23:20:19.201Z,11.24
2023-05-09T23:22:48.410Z,11.23
2023-05-09T23:25:19.108Z,11.21
2023-05-09T23:27:49.745Z,11.19
2023-05-09T23:30:20.548Z,11.16
2023-05-09T23:32:51.230Z,11.13
2023-05-09T23:35:22.091Z,11.11
2023-05-09T23:37:52.887Z,11.08
2023-05-09T23:40:23.830Z,11.05
2023-05-09T23:42:52.942Z,11.03
2023-05-09T23:45:23.703Z,10.98
2023-05-09T23:47:55.428Z,10.96
2023-05-09T23:50:26.050Z,10.94
2023-05-09T23:52:56.801Z,10.93
2023-05-09T23:55:27.484Z,10.91
2023-05-09T23:57:58.126Z,10.90
